Terminal Aerodrome Forecast
Issued by NWS

Home | Current Version | Previous Version | Text Only | Print | Product List | Glossary On
Versions: 1 2 3 4 5 6 7 8 9 10 11 12 13 14 15 16 17 18 19 20 21 22 23 24 25 26 27 28 29 30
416
FTUS45 KPIH 171121
TAFDIJ
TAF
KDIJ 171121Z 1712/1812 17010KT P6SM -SHRA BKN015 OVC050
     FM171800 20015KT P6SM VCSH SCT015 OVC040
     FM180000 24010KT P6SM SCT040
     FM180200 14006KT P6SM FEW090
     AMD LTD TO CLD VIS AND WIND=

USA.gov is the U.S. government's official web portal to all federal, state and local government web resources and services.